Aérodrome :
LOGIN :

S'inscrire | Disclaimer

   EN    FR    IT 

 










Légende :    VFR   VFR Marginal   IFR   IFR Intensif   IFR Très Intensif
Visi : 
Plafond : 
>= 8 km
>= 3000ft
5 à 8 km
1000 à 3000 ft
1500m à 5 km
500 à 1000 ft
800 à 1500m
200 à 500 ft
< 800m
< 200 ft
Symboles :   Orages  Brouillard  Fortes neiges  Fortes précipitations  Vent > 20 kt
SIGMETs :   Divers  Orages  Givrage  Turbulence  Onde Orograph.  Cendres Volcan.







- Altitude de l'aérodrome : 659 ft
- Code IATA : LGG


EBLG - Liège

METARs EXPIRÉS :
  • 241420Z 26012KT 9999 BKN043 22/12 Q1016 NOSIG
  • 241350Z 26012KT 9999 BKN040 22/12 Q1016 NOSIG
  • 241320Z 24013KT 220V280 9999 BKN038 22/11 Q1016 NOSIG
  • 241250Z 24015KT 9999 BKN035 23/11 Q1016 NOSIG
  • 241220Z 25018KT 9999 BKN032 21/12 Q1016 NOSIG
  • 241150Z 24016KT 9999 BKN029 20/12 Q1017 NOSIG

TAF TAF EBLG
Valide du 24 à 12h jusqu'au 25 à 18h UTC


241101Z 2412/2518 24011KT 9999 BKN020
TEMPO 2503/2507 BKN012
Pas de NOTAMs connus pour ce terrain.
1 SIGMET publié pour la FIR Brussels (EBBU) :
 
Turbulence forte
EBBU SIGMET 01 VALID 242300/250300 EBBR
EBBU BRUSSELS FIR SEV TURB FCST E OF LINE N5001 E00408 - N5110 E00560 FL300/370 MOV SE 15KT NC=



MET'MAP, la Météo Aéronautique d'un coup d'oeil ! - Copyright ORBIFLY Décembre 2007 - Disclaimer

ORBIFLY MET'MAP TEAM :

Programmation & Développement : Alexandra Zaïnal
Conception & Développement : Baudouin d'Aumeries
Co-Programmation & Développement : Marc-Olivier Méhu
Soutien technique & logistique : Manuel Goepfert

Contact : metmap@orbifly.com




SOURCES & CREDITS :

   NOAA